Time;durP1;ratioP1;P1;durP2;ratioP2;P2;SDS_P1;SDS_P2;PMS_P1;PMS_P2;Temp;Humidity;BMP_temperature;BMP_pressure;BME280_temperature;BME280_humidity;BME280_pressure;Samples;Min_cycle;Max_cycle;Signal;HPM_P1;HPM_P2
2023/01/15 00:01:33;;;;;;;0.60;0.60;;;;;;;;;;5080039;28;20266;-82
2023/01/15 00:03:59;;;;;;;0.73;0.67;;;;;;;;;;5069420;28;20202;-83
2023/01/15 00:06:25;;;;;;;0.60;0.60;;;;;;;;;;5065195;28;20173;-82
2023/01/15 00:08:50;;;;;;;0.50;0.50;;;;;;;;;;5060066;28;20182;-83
2023/01/15 00:11:16;;;;;;;0.47;0.47;;;;;;;;;;5061721;28;20185;-82
2023/01/15 00:13:41;;;;;;;0.70;0.70;;;;;;;;;;5066978;28;20184;-83
2023/01/15 00:16:08;;;;;;;0.50;0.50;;;;;;;;;;5065864;28;20205;-82
2023/01/15 00:18:33;;;;;;;0.70;0.70;;;;;;;;;;5065687;28;20183;-83
2023/01/15 00:21:00;;;;;;;0.77;0.77;;;;;;;;;;5067657;28;20173;-83
2023/01/15 00:28:55;;;;;;;0.73;0.73;;;;;;;;;;5067641;28;20240;-83
2023/01/15 00:31:21;;;;;;;0.80;0.80;;;;;;;;;;5073780;28;20401;-82
2023/01/15 00:33:46;;;;;;;0.50;0.50;;;;;;;;;;5065955;28;20189;-82
2023/01/15 00:36:11;;;;;;;0.60;0.60;;;;;;;;;;5081127;28;20234;-83
2023/01/15 00:38:36;;;;;;;0.70;0.70;;;;;;;;;;5058677;28;20182;-83
2023/01/15 00:41:01;;;;;;;0.30;0.30;;;;;;;;;;5069339;28;20191;-83
2023/01/15 00:43:27;;;;;;;0.70;0.70;;;;;;;;;;5065799;28;20186;-83
2023/01/15 00:45:52;;;;;;;0.60;0.60;;;;;;;;;;5095355;28;20201;-83
2023/01/15 00:48:17;;;;;;;0.53;0.53;;;;;;;;;;5068033;28;20178;-83
2023/01/15 00:50:43;;;;;;;0.83;0.83;;;;;;;;;;5072124;28;20192;-83
2023/01/15 00:53:08;;;;;;;1.33;0.80;;;;;;;;;;5071147;28;20213;-83
2023/01/15 00:55:33;;;;;;;0.70;0.67;;;;;;;;;;5068847;28;20211;-83
2023/01/15 00:57:58;;;;;;;0.50;0.50;;;;;;;;;;5070631;28;20234;-82
2023/01/15 01:00:23;;;;;;;0.50;0.50;;;;;;;;;;5068605;28;20248;-83
2023/01/15 01:02:49;;;;;;;0.60;0.60;;;;;;;;;;5072352;28;20181;-82
2023/01/15 01:05:14;;;;;;;0.60;0.60;;;;;;;;;;5074773;28;20227;-82
2023/01/15 01:07:39;;;;;;;1.00;0.90;;;;;;;;;;5072711;28;20192;-83
2023/01/15 01:10:04;;;;;;;0.77;0.50;;;;;;;;;;5070538;28;20239;-83
2023/01/15 01:12:30;;;;;;;0.60;0.60;;;;;;;;;;5079431;28;20633;-83
2023/01/15 01:14:55;;;;;;;0.50;0.50;;;;;;;;;;5077313;28;20177;-82
2023/01/15 01:17:20;;;;;;;0.77;0.77;;;;;;;;;;5070701;28;20192;-83
2023/01/15 01:19:45;;;;;;;0.60;0.60;;;;;;;;;;5070569;28;20262;-83
2023/01/15 01:22:11;;;;;;;0.60;0.60;;;;;;;;;;5070145;28;20170;-82
2023/01/15 01:24:36;;;;;;;0.50;0.50;;;;;;;;;;5069786;28;20209;-83
2023/01/15 01:27:01;;;;;;;0.60;0.60;;;;;;;;;;5070136;28;20177;-83
2023/01/15 01:29:26;;;;;;;0.60;0.60;;;;;;;;;;5064886;28;20178;-83
2023/01/15 01:31:52;;;;;;;0.50;0.50;;;;;;;;;;5067813;28;20257;-83
2023/01/15 01:34:17;;;;;;;0.40;0.40;;;;;;;;;;5066581;28;20189;-82
2023/01/15 01:36:43;;;;;;;0.50;0.50;;;;;;;;;;5079702;28;20234;-83
2023/01/15 01:39:14;;;;;;;0.60;0.60;;;;;;;;;;5074714;28;20221;-82
2023/01/15 01:41:39;;;;;;;0.37;0.37;;;;;;;;;;5075534;28;20190;-83
2023/01/15 01:44:27;;;;;;;2.47;0.50;;;;;;;;;;5066192;28;20213;-83
2023/01/15 01:46:52;;;;;;;0.70;0.70;;;;;;;;;;5068491;28;20206;-83
2023/01/15 01:49:18;;;;;;;0.50;0.50;;;;;;;;;;5081584;28;20213;-83
2023/01/15 01:51:49;;;;;;;0.40;0.40;;;;;;;;;;5062950;28;20181;-83
2023/01/15 01:54:16;;;;;;;0.50;0.50;;;;;;;;;;5072939;28;20717;-83
2023/01/15 01:56:42;;;;;;;0.60;0.50;;;;;;;;;;5069127;28;20227;-83
2023/01/15 01:59:07;;;;;;;0.43;0.43;;;;;;;;;;5063150;28;20181;-83
2023/01/15 02:01:33;;;;;;;0.33;0.20;;;;;;;;;;5072045;28;20239;-82
2023/01/15 02:03:58;;;;;;;0.20;0.20;;;;;;;;;;5068401;28;20198;-82
2023/01/15 02:06:24;;;;;;;0.63;0.60;;;;;;;;;;5066178;28;20192;-83
2023/01/15 02:08:50;;;;;;;1.53;0.70;;;;;;;;;;5068110;28;20177;-83
2023/01/15 02:11:16;;;;;;;0.80;0.80;;;;;;;;;;5087224;28;20174;-83
2023/01/15 02:13:48;;;;;;;0.30;0.30;;;;;;;;;;5075760;28;20180;-83
2023/01/15 02:16:22;;;;;;;2.83;0.40;;;;;;;;;;5070156;28;20208;-82
2023/01/15 02:18:47;;;;;;;0.77;0.77;;;;;;;;;;5065946;28;20214;-83
2023/01/15 02:21:12;;;;;;;0.30;0.30;;;;;;;;;;5069037;28;20204;-83
2023/01/15 02:23:38;;;;;;;0.50;0.50;;;;;;;;;;5064425;28;20209;-83
2023/01/15 02:26:25;;;;;;;0.80;0.80;;;;;;;;;;5064238;28;20184;-83
2023/01/15 02:28:52;;;;;;;0.70;0.70;;;;;;;;;;5081487;28;20188;-83
2023/01/15 02:31:37;;;;;;;0.50;0.50;;;;;;;;;;5070891;28;20174;-83
2023/01/15 02:34:03;;;;;;;0.17;0.17;;;;;;;;;;5066618;28;20223;-83
2023/01/15 02:36:30;;;;;;;1.63;1.27;;;;;;;;;;5067277;28;20229;-83
2023/01/15 02:38:58;;;;;;;0.10;0.10;;;;;;;;;;5065678;28;20181;-82
2023/01/15 02:41:29;;;;;;;0.10;0.10;;;;;;;;;;5064549;28;20225;-83
2023/01/15 02:43:55;;;;;;;0.40;0.40;;;;;;;;;;5073066;28;20261;-83
2023/01/15 02:46:22;;;;;;;0.20;0.20;;;;;;;;;;5066065;28;20189;-83
2023/01/15 02:48:51;;;;;;;0.20;0.20;;;;;;;;;;5068004;28;20208;-83
2023/01/15 02:51:19;;;;;;;0.40;0.33;;;;;;;;;;5066210;28;20178;-83
2023/01/15 02:53:45;;;;;;;0.30;0.30;;;;;;;;;;5062927;28;20253;-83
2023/01/15 02:56:13;;;;;;;0.37;0.37;;;;;;;;;;5060389;28;20182;-83
2023/01/15 02:58:40;;;;;;;1.00;0.20;;;;;;;;;;5067141;28;20191;-83
2023/01/15 03:01:13;;;;;;;0.30;0.30;;;;;;;;;;5048821;28;20231;-83
2023/01/15 03:03:45;;;;;;;0.37;0.37;;;;;;;;;;5068064;28;20184;-83
2023/01/15 03:06:31;;;;;;;0.10;0.10;;;;;;;;;;5066964;28;20177;-83
2023/01/15 03:08:56;;;;;;;0.20;0.20;;;;;;;;;;5059585;28;20191;-83
2023/01/15 03:11:21;;;;;;;0.20;0.20;;;;;;;;;;5065555;28;20189;-83
2023/01/15 03:13:50;;;;;;;0.43;0.43;;;;;;;;;;5068837;28;20212;-83
2023/01/15 03:16:34;;;;;;;0.13;0.13;;;;;;;;;;5067000;28;20185;-83
2023/01/15 03:19:03;;;;;;;0.67;0.40;;;;;;;;;;5066440;28;20181;-83
2023/01/15 03:21:31;;;;;;;0.20;0.20;;;;;;;;;;5072683;28;20254;-83
2023/01/15 03:24:00;;;;;;;0.20;0.20;;;;;;;;;;5069560;28;20206;-83
2023/01/15 03:26:25;;;;;;;0.27;0.27;;;;;;;;;;5062965;28;20252;-83
2023/01/15 03:28:51;;;;;;;0.10;0.10;;;;;;;;;;5067391;28;20264;-83
2023/01/15 03:31:16;;;;;;;0.47;0.47;;;;;;;;;;5068625;28;20174;-83
2023/01/15 03:33:42;;;;;;;0.40;0.33;;;;;;;;;;5079888;28;20176;-83
2023/01/15 03:36:07;;;;;;;0.20;0.20;;;;;;;;;;5065069;28;20228;-83
2023/01/15 03:38:34;;;;;;;1.27;0.27;;;;;;;;;;5067991;28;20185;-83
2023/01/15 03:41:11;;;;;;;0.30;0.30;;;;;;;;;;5058809;28;20193;-84
2023/01/15 03:43:49;;;;;;;0.20;0.20;;;;;;;;;;5072327;28;20274;-83
2023/01/15 03:46:17;;;;;;;0.30;0.30;;;;;;;;;;5076090;28;20236;-83
2023/01/15 03:48:48;;;;;;;0.20;0.20;;;;;;;;;;5066984;28;20258;-83
2023/01/15 03:51:24;;;;;;;0.10;0.10;;;;;;;;;;5070236;28;20186;-83
2023/01/15 03:53:54;;;;;;;0.40;0.40;;;;;;;;;;5068996;28;20237;-83
2023/01/15 03:56:31;;;;;;;0.20;0.20;;;;;;;;;;5065505;28;20185;-83
2023/01/15 03:58:59;;;;;;;0.10;0.10;;;;;;;;;;5064465;28;20183;-83
2023/01/15 04:01:26;;;;;;;0.20;0.20;;;;;;;;;;5066669;28;20193;-83
2023/01/15 04:03:52;;;;;;;0.30;0.30;;;;;;;;;;5075416;28;20178;-83
2023/01/15 04:06:17;;;;;;;0.10;0.10;;;;;;;;;;5064949;28;20186;-83
2023/01/15 04:08:44;;;;;;;0.20;0.20;;;;;;;;;;5063014;28;20191;-83
2023/01/15 04:11:09;;;;;;;0.30;0.30;;;;;;;;;;5063890;28;20236;-83
2023/01/15 04:13:35;;;;;;;0.60;0.20;;;;;;;;;;5068888;28;20181;-83
2023/01/15 04:16:00;;;;;;;0.10;0.10;;;;;;;;;;5079009;28;20213;-83
2023/01/15 04:18:26;;;;;;;0.20;0.20;;;;;;;;;;5070841;28;20185;-83
2023/01/15 04:20:51;;;;;;;0.20;0.20;;;;;;;;;;5069078;28;20178;-83
2023/01/15 04:23:16;;;;;;;0.40;0.40;;;;;;;;;;5070475;28;20233;-83
2023/01/15 04:25:41;;;;;;;0.20;0.20;;;;;;;;;;5068279;28;20209;-83
2023/01/15 04:28:07;;;;;;;0.10;0.10;;;;;;;;;;5071009;28;20179;-83
2023/01/15 04:30:33;;;;;;;0.13;0.13;;;;;;;;;;5078054;28;20248;-83
2023/01/15 04:32:58;;;;;;;0.20;0.20;;;;;;;;;;5069815;28;20257;-83
2023/01/15 04:35:23;;;;;;;0.30;0.20;;;;;;;;;;5068283;28;20297;-83
2023/01/15 04:37:52;;;;;;;0.20;0.20;;;;;;;;;;5068068;28;20242;-83
2023/01/15 04:45:46;;;;;;;1.03;0.90;;;;;;;;;;5068870;28;20219;-83
2023/01/15 04:48:11;;;;;;;0.10;0.10;;;;;;;;;;5074976;28;20180;-83
2023/01/15 04:50:40;;;;;;;0.10;0.10;;;;;;;;;;5068914;28;20187;-83
2023/01/15 04:53:05;;;;;;;0.20;0.20;;;;;;;;;;5070417;28;20196;-83
2023/01/15 04:55:30;;;;;;;0.10;0.10;;;;;;;;;;5070423;28;20264;-82
2023/01/15 04:57:56;;;;;;;0.37;0.20;;;;;;;;;;5075207;28;20190;-83
2023/01/15 05:00:22;;;;;;;0.10;0.10;;;;;;;;;;5070336;28;20193;-82
2023/01/15 05:02:47;;;;;;;0.10;0.10;;;;;;;;;;5073194;28;20172;-82
2023/01/15 05:05:12;;;;;;;0.10;0.10;;;;;;;;;;5078146;28;20213;-83
2023/01/15 05:07:37;;;;;;;0.20;0.20;;;;;;;;;;5086495;28;20202;-83
2023/01/15 05:10:03;;;;;;;1.03;0.80;;;;;;;;;;5074846;28;20181;-82
2023/01/15 05:12:28;;;;;;;0.73;0.23;;;;;;;;;;5068088;28;20252;-82
2023/01/15 05:14:53;;;;;;;0.20;0.20;;;;;;;;;;5065595;28;20276;-83
2023/01/15 05:17:18;;;;;;;0.10;0.10;;;;;;;;;;5070008;28;20184;-83
2023/01/15 05:19:43;;;;;;;0.17;0.17;;;;;;;;;;5069492;28;20322;-83
2023/01/15 05:22:09;;;;;;;0.20;0.20;;;;;;;;;;5072584;28;20249;-84
2023/01/15 05:24:34;;;;;;;0.13;0.13;;;;;;;;;;5064757;28;20196;-82
2023/01/15 05:27:00;;;;;;;0.10;0.10;;;;;;;;;;5070605;28;20174;-83
2023/01/15 05:29:25;;;;;;;0.10;0.10;;;;;;;;;;5070374;28;20205;-83
2023/01/15 05:31:50;;;;;;;0.10;0.10;;;;;;;;;;5066998;28;20178;-83
2023/01/15 05:34:15;;;;;;;0.10;0.10;;;;;;;;;;5067048;28;20185;-82
2023/01/15 05:36:40;;;;;;;0.13;0.13;;;;;;;;;;5066871;28;20245;-82
2023/01/15 05:39:06;;;;;;;0.10;0.10;;;;;;;;;;5073059;28;20519;-83
2023/01/15 05:41:49;;;;;;;0.20;0.20;;;;;;;;;;5080911;28;20174;-83
2023/01/15 05:44:22;;;;;;;0.40;0.40;;;;;;;;;;5070414;28;20228;-83
2023/01/15 05:46:48;;;;;;;0.20;0.20;;;;;;;;;;5065589;28;20173;-83
2023/01/15 05:49:15;;;;;;;0.10;0.10;;;;;;;;;;5064739;28;20192;-83
2023/01/15 05:51:40;;;;;;;0.10;0.10;;;;;;;;;;5065859;28;20186;-82
2023/01/15 05:54:06;;;;;;;0.40;0.40;;;;;;;;;;5070613;28;20177;-83
2023/01/15 05:56:33;;;;;;;0.40;0.40;;;;;;;;;;5070429;28;20181;-83
2023/01/15 05:58:59;;;;;;;0.37;0.37;;;;;;;;;;5072108;28;20182;-83
2023/01/15 06:01:24;;;;;;;0.20;0.20;;;;;;;;;;5070049;28;20182;-82
2023/01/15 06:03:49;;;;;;;0.20;0.20;;;;;;;;;;5081379;28;20186;-82
2023/01/15 06:06:15;;;;;;;0.23;0.23;;;;;;;;;;5064254;28;20188;-82
2023/01/15 06:08:41;;;;;;;0.10;0.10;;;;;;;;;;5075560;28;20262;-82
2023/01/15 06:11:06;;;;;;;0.17;0.17;;;;;;;;;;5066669;28;20205;-83
2023/01/15 06:13:32;;;;;;;0.23;0.23;;;;;;;;;;5086618;28;20197;-83
2023/01/15 06:15:58;;;;;;;0.33;0.33;;;;;;;;;;5062208;28;20200;-82
2023/01/15 06:18:23;;;;;;;0.20;0.20;;;;;;;;;;5070539;28;20272;-82
2023/01/15 06:20:49;;;;;;;0.10;0.10;;;;;;;;;;5070068;28;20417;-82
2023/01/15 06:23:16;;;;;;;0.13;0.13;;;;;;;;;;5065873;28;20235;-82
2023/01/15 06:25:41;;;;;;;0.23;0.23;;;;;;;;;;5068935;28;20287;-82
2023/01/15 06:28:06;;;;;;;0.17;0.17;;;;;;;;;;5065484;28;20260;-83
2023/01/15 06:30:32;;;;;;;0.30;0.20;;;;;;;;;;5074833;28;20261;-83
2023/01/15 06:32:57;;;;;;;0.20;0.20;;;;;;;;;;5070800;28;20180;-82
2023/01/15 06:35:22;;;;;;;0.77;0.77;;;;;;;;;;5075094;28;20295;-82
2023/01/15 06:37:48;;;;;;;0.10;0.10;;;;;;;;;;5066212;28;20375;-82
2023/01/15 06:40:13;;;;;;;0.20;0.20;;;;;;;;;;5062962;28;20171;-82
2023/01/15 06:48:06;;;;;;;0.77;0.77;;;;;;;;;;5068832;28;20183;-82
2023/01/15 06:50:31;;;;;;;4.10;3.13;;;;;;;;;;5074755;28;20175;-82
2023/01/15 06:52:57;;;;;;;6.40;5.50;;;;;;;;;;5065415;28;20193;-83
2023/01/15 06:55:22;;;;;;;1.77;1.67;;;;;;;;;;5068488;28;20226;-82
2023/01/15 06:57:48;;;;;;;0.40;0.40;;;;;;;;;;5087252;28;20175;-83
2023/01/15 07:00:13;;;;;;;0.30;0.30;;;;;;;;;;5069056;28;20429;-82
2023/01/15 07:02:40;;;;;;;0.60;0.60;;;;;;;;;;5080052;28;20251;-82
2023/01/15 07:05:05;;;;;;;0.60;0.60;;;;;;;;;;5058571;28;20213;-82
2023/01/15 07:07:31;;;;;;;0.70;0.60;;;;;;;;;;5062072;28;20185;-82
2023/01/15 07:09:56;;;;;;;0.20;0.20;;;;;;;;;;5067901;28;20173;-82
2023/01/15 07:12:21;;;;;;;0.50;0.50;;;;;;;;;;5069064;28;20179;-82
2023/01/15 07:14:47;;;;;;;0.60;0.60;;;;;;;;;;5059323;28;21435;-82
2023/01/15 07:17:12;;;;;;;0.17;0.17;;;;;;;;;;5081989;28;20192;-82
2023/01/15 07:19:37;;;;;;;0.40;0.40;;;;;;;;;;5083377;28;20192;-82
2023/01/15 07:22:03;;;;;;;0.30;0.30;;;;;;;;;;5067805;28;20192;-82
2023/01/15 07:24:28;;;;;;;0.10;0.10;;;;;;;;;;5065348;28;20200;-82
2023/01/15 07:26:53;;;;;;;0.20;0.20;;;;;;;;;;5068170;28;20195;-82
2023/01/15 07:29:18;;;;;;;0.60;0.60;;;;;;;;;;5065728;28;20171;-82
2023/01/15 07:31:44;;;;;;;0.40;0.40;;;;;;;;;;5060450;28;20314;-82
2023/01/15 07:34:09;;;;;;;0.30;0.30;;;;;;;;;;5083439;28;20309;-82
2023/01/15 07:36:34;;;;;;;1.00;1.00;;;;;;;;;;5069644;28;20245;-82
2023/01/15 07:39:02;;;;;;;0.30;0.30;;;;;;;;;;5068518;28;20175;-82
2023/01/15 07:49:47;;;;;;;0.83;0.83;;;;;;;;;;5061005;28;20238;-82
2023/01/15 07:52:13;;;;;;;0.80;0.80;;;;;;;;;;5066377;28;20261;-81
2023/01/15 07:54:38;;;;;;;0.37;0.37;;;;;;;;;;5071961;28;20184;-82
2023/01/15 07:57:04;;;;;;;0.50;0.50;;;;;;;;;;5072261;28;20271;-82
2023/01/15 07:59:29;;;;;;;0.60;0.60;;;;;;;;;;5079711;28;20231;-82
2023/01/15 08:01:54;;;;;;;0.27;0.27;;;;;;;;;;5084103;28;20191;-82
2023/01/15 08:04:20;;;;;;;0.40;0.40;;;;;;;;;;5066525;28;20208;-81
2023/01/15 08:06:45;;;;;;;0.53;0.53;;;;;;;;;;5066745;28;20184;-82
2023/01/15 08:09:10;;;;;;;0.60;0.40;;;;;;;;;;5067463;28;20191;-82
2023/01/15 08:17:03;;;;;;;0.77;0.77;;;;;;;;;;5073306;28;20180;-82
2023/01/15 08:19:28;;;;;;;0.60;0.60;;;;;;;;;;5072441;28;20178;-82
2023/01/15 08:21:54;;;;;;;0.40;0.40;;;;;;;;;;5072083;28;20187;-81
2023/01/15 08:24:19;;;;;;;2.20;0.87;;;;;;;;;;5068012;28;20204;-82
2023/01/15 08:26:45;;;;;;;1.10;1.07;;;;;;;;;;5074018;28;20177;-82
2023/01/15 08:29:10;;;;;;;1.40;1.30;;;;;;;;;;5066878;28;20459;-82
2023/01/15 08:31:35;;;;;;;0.93;0.93;;;;;;;;;;5067818;28;20247;-82
2023/01/15 08:34:01;;;;;;;1.40;1.30;;;;;;;;;;5067733;28;20172;-81
2023/01/15 08:36:26;;;;;;;1.50;1.40;;;;;;;;;;5077998;28;20221;-82
2023/01/15 08:38:51;;;;;;;1.33;1.23;;;;;;;;;;5070879;28;20170;-82
2023/01/15 08:41:16;;;;;;;1.37;1.23;;;;;;;;;;5072816;28;20186;-82
2023/01/15 08:43:44;;;;;;;0.50;0.50;;;;;;;;;;5082299;28;20183;-82
2023/01/15 08:46:10;;;;;;;0.80;0.80;;;;;;;;;;5066242;28;20228;-81
2023/01/15 08:48:35;;;;;;;0.30;0.30;;;;;;;;;;5074406;28;20177;-81
2023/01/15 08:51:07;;;;;;;1.00;0.63;;;;;;;;;;5073490;28;20178;-82
2023/01/15 08:53:33;;;;;;;0.20;0.20;;;;;;;;;;5065573;28;20241;-82
2023/01/15 08:55:58;;;;;;;0.33;0.33;;;;;;;;;;5068749;28;20265;-82
2023/01/15 08:58:25;;;;;;;0.43;0.43;;;;;;;;;;5071991;28;20286;-81
2023/01/15 09:00:51;;;;;;;0.53;0.53;;;;;;;;;;5068095;28;20184;-82
2023/01/15 09:03:16;;;;;;;0.40;0.40;;;;;;;;;;5074032;28;20169;-82
2023/01/15 09:05:41;;;;;;;0.70;0.70;;;;;;;;;;5064797;28;20498;-81
2023/01/15 09:08:07;;;;;;;1.40;1.30;;;;;;;;;;5074039;28;20175;-82
2023/01/15 09:10:32;;;;;;;1.10;0.97;;;;;;;;;;5066655;28;20178;-82
2023/01/15 09:12:59;;;;;;;0.57;0.57;;;;;;;;;;5068613;28;20174;-82
2023/01/15 09:15:24;;;;;;;0.40;0.40;;;;;;;;;;5067534;28;20185;-82
2023/01/15 09:17:49;;;;;;;0.90;0.90;;;;;;;;;;5062122;28;20189;-82
2023/01/15 09:20:14;;;;;;;0.80;0.80;;;;;;;;;;5072533;28;20276;-82
2023/01/15 09:22:40;;;;;;;0.70;0.70;;;;;;;;;;5067846;28;20274;-82
2023/01/15 09:25:05;;;;;;;0.50;0.50;;;;;;;;;;5066125;28;20213;-82
2023/01/15 09:27:32;;;;;;;0.40;0.40;;;;;;;;;;5079275;28;20212;-81
2023/01/15 09:29:58;;;;;;;0.40;0.40;;;;;;;;;;5083348;28;20215;-81
2023/01/15 09:32:23;;;;;;;0.77;0.77;;;;;;;;;;5061008;28;20207;-81
2023/01/15 09:34:49;;;;;;;0.87;0.87;;;;;;;;;;5078047;28;20188;-81
2023/01/15 09:37:15;;;;;;;0.83;0.83;;;;;;;;;;5068737;28;20221;-81
2023/01/15 09:39:40;;;;;;;1.50;1.40;;;;;;;;;;5074989;28;20184;-81
2023/01/15 09:42:08;;;;;;;4.53;4.13;;;;;;;;;;5069525;28;20200;-82
2023/01/15 09:44:38;;;;;;;5.63;5.10;;;;;;;;;;5067512;28;20193;-82
2023/01/15 09:47:09;;;;;;;6.33;5.77;;;;;;;;;;5074540;28;20195;-82
2023/01/15 09:49:34;;;;;;;3.00;2.77;;;;;;;;;;5062848;28;20181;-82
2023/01/15 09:52:03;;;;;;;5.73;4.40;;;;;;;;;;5053812;28;20220;-82
2023/01/15 09:54:47;;;;;;;3.90;3.60;;;;;;;;;;5064540;28;20235;-81
2023/01/15 09:57:14;;;;;;;2.30;2.20;;;;;;;;;;5066398;28;20179;-82
2023/01/15 09:59:41;;;;;;;2.07;1.97;;;;;;;;;;5066183;28;20193;-81
2023/01/15 10:02:15;;;;;;;1.10;1.10;;;;;;;;;;5064897;28;20232;-81
2023/01/15 10:04:43;;;;;;;1.50;1.40;;;;;;;;;;5061502;28;20233;-82
2023/01/15 10:07:17;;;;;;;1.37;1.27;;;;;;;;;;5060869;28;20181;-81
2023/01/15 10:09:43;;;;;;;0.90;0.90;;;;;;;;;;5069984;28;20177;-82
2023/01/15 10:15:18;;;;;;;3.87;3.47;;;;;;;;;;5061402;28;20188;-82
2023/01/15 10:17:48;;;;;;;2.07;1.87;;;;;;;;;;5066379;28;20181;-82
2023/01/15 10:20:25;;;;;;;3.00;2.80;;;;;;;;;;5066933;28;20178;-82
2023/01/15 10:22:59;;;;;;;3.70;3.50;;;;;;;;;;5059777;28;20241;-82
2023/01/15 10:25:27;;;;;;;0.40;0.40;;;;;;;;;;5068494;28;20201;-82
2023/01/15 10:27:52;;;;;;;0.50;0.50;;;;;;;;;;5064765;28;20178;-82
2023/01/15 10:30:44;;;;;;;0.60;0.57;;;;;;;;;;5064681;28;20261;-82
2023/01/15 10:33:17;;;;;;;0.80;0.80;;;;;;;;;;5059855;28;20189;-82
2023/01/15 10:35:56;;;;;;;8.17;6.17;;;;;;;;;;5078051;28;20223;-83
2023/01/15 10:38:31;;;;;;;1.33;1.23;;;;;;;;;;5077780;28;20201;-83
2023/01/15 10:40:56;;;;;;;8.70;6.27;;;;;;;;;;5058830;28;20185;-82
2023/01/15 10:43:40;;;;;;;6.93;4.73;;;;;;;;;;5061292;28;20585;-83
2023/01/15 10:46:31;;;;;;;9.47;6.13;;;;;;;;;;5057173;28;20205;-82
2023/01/15 10:48:58;;;;;;;1.17;1.07;;;;;;;;;;5065453;28;20204;-82
2023/01/15 10:51:27;;;;;;;0.80;0.80;;;;;;;;;;5065258;28;20184;-82
2023/01/15 10:53:59;;;;;;;0.93;0.93;;;;;;;;;;5065823;28;20185;-82
2023/01/15 10:56:31;;;;;;;0.90;0.90;;;;;;;;;;5067247;28;20177;-82
2023/01/15 10:58:56;;;;;;;1.03;1.03;;;;;;;;;;5063131;28;20185;-82
2023/01/15 11:01:24;;;;;;;0.97;0.97;;;;;;;;;;5065761;28;20260;-82
2023/01/15 11:03:49;;;;;;;0.80;0.80;;;;;;;;;;5059628;28;20177;-82
2023/01/15 11:06:16;;;;;;;0.47;0.47;;;;;;;;;;5067594;28;20207;-82
2023/01/15 11:08:44;;;;;;;0.70;0.67;;;;;;;;;;5063188;28;20201;-82
2023/01/15 11:19:35;;;;;;;0.80;0.80;;;;;;;;;;5067737;28;20323;-82
2023/01/15 11:20:32;;;;;;;0.70;0.70;;;;;;;;;;5070790;28;20193;-82
2023/01/15 11:23:05;;;;;;;1.00;1.00;;;;;;;;;;5060257;28;20190;-82
2023/01/15 11:25:31;;;;;;;0.90;0.87;;;;;;;;;;5067782;28;20201;-82
2023/01/15 11:27:58;;;;;;;1.27;1.17;;;;;;;;;;5082171;28;20186;-82
2023/01/15 11:30:31;;;;;;;2.67;2.47;;;;;;;;;;5073586;28;20198;-83
2023/01/15 11:32:57;;;;;;;1.80;1.70;;;;;;;;;;5062377;28;20205;-82
2023/01/15 11:35:23;;;;;;;0.53;0.53;;;;;;;;;;5061175;28;20228;-82
2023/01/15 11:37:48;;;;;;;0.30;0.30;;;;;;;;;;5056065;28;20233;-83
2023/01/15 11:40:22;;;;;;;0.70;0.70;;;;;;;;;;5068917;28;20191;-82
2023/01/15 11:51:04;;;;;;;0.70;0.70;;;;;;;;;;5072430;28;20184;-82
2023/01/15 11:53:32;;;;;;;1.00;0.90;;;;;;;;;;5062743;28;20198;-82
2023/01/15 11:56:05;;;;;;;1.60;0.60;;;;;;;;;;5072151;28;20183;-82
2023/01/15 11:58:47;;;;;;;1.23;1.00;;;;;;;;;;5067420;28;20177;-82
2023/01/15 12:01:15;;;;;;;1.27;0.77;;;;;;;;;;5065646;28;20192;-83
2023/01/15 12:03:40;;;;;;;1.30;1.07;;;;;;;;;;5060785;28;20239;-82
2023/01/15 12:06:08;;;;;;;2.33;1.10;;;;;;;;;;5060760;28;20551;-82
2023/01/15 12:08:49;;;;;;;1.03;1.00;;;;;;;;;;5068939;28;20249;-82
2023/01/15 12:11:31;;;;;;;3.90;1.10;;;;;;;;;;5065669;28;20181;-83
2023/01/15 12:14:07;;;;;;;1.00;0.93;;;;;;;;;;5077176;28;20196;-83
2023/01/15 12:16:44;;;;;;;2.30;1.00;;;;;;;;;;5067489;28;20185;-82
2023/01/15 12:19:26;;;;;;;3.67;2.13;;;;;;;;;;5069041;28;20180;-83
2023/01/15 12:21:55;;;;;;;2.27;1.63;;;;;;;;;;5055915;28;20324;-83
2023/01/15 12:24:39;;;;;;;3.17;1.40;;;;;;;;;;5057791;28;20204;-83
2023/01/15 12:27:07;;;;;;;3.77;3.27;;;;;;;;;;5064177;28;20311;-83
2023/01/15 12:29:39;;;;;;;4.00;1.93;;;;;;;;;;5072843;28;20169;-82
2023/01/15 12:32:07;;;;;;;4.40;2.83;;;;;;;;;;5067111;28;20177;-83
2023/01/15 12:34:32;;;;;;;3.17;1.50;;;;;;;;;;5065610;28;20172;-83
2023/01/15 12:37:02;;;;;;;4.30;1.70;;;;;;;;;;5065469;28;20239;-83
2023/01/15 12:39:53;;;;;;;0.97;0.83;;;;;;;;;;5079808;28;20173;-83
2023/01/15 12:45:07;;;;;;;5.23;3.47;;;;;;;;;;5067485;28;20240;-83
2023/01/15 12:47:35;;;;;;;2.37;1.30;;;;;;;;;;5068978;28;20170;-83
2023/01/15 12:50:19;;;;;;;4.30;1.00;;;;;;;;;;5075185;28;20210;-82
2023/01/15 12:52:47;;;;;;;1.40;1.30;;;;;;;;;;5076971;28;20165;-82
2023/01/15 12:55:18;;;;;;;1.57;1.37;;;;;;;;;;5057851;28;20196;-82
2023/01/15 12:57:45;;;;;;;2.37;1.37;;;;;;;;;;5069942;28;20197;-82
2023/01/15 13:00:15;;;;;;;2.33;1.30;;;;;;;;;;5069640;28;20310;-83
2023/01/15 13:02:46;;;;;;;0.70;0.70;;;;;;;;;;5074570;28;20170;-82
2023/01/15 13:05:19;;;;;;;2.57;1.20;;;;;;;;;;5070354;28;20217;-83
2023/01/15 13:07:51;;;;;;;2.53;1.30;;;;;;;;;;5083073;28;20181;-81
2023/01/15 13:10:26;;;;;;;1.40;1.00;;;;;;;;;;5070125;28;20273;-82
2023/01/15 13:12:52;;;;;;;2.03;1.00;;;;;;;;;;5064706;28;20203;-82
2023/01/15 13:15:20;;;;;;;0.80;0.80;;;;;;;;;;5066416;28;20208;-82
2023/01/15 13:18:14;;;;;;;2.33;1.30;;;;;;;;;;5073457;28;20188;-82
2023/01/15 13:20:46;;;;;;;1.67;1.33;;;;;;;;;;5066550;28;20249;-82
2023/01/15 13:23:26;;;;;;;2.33;1.30;;;;;;;;;;5069982;28;20174;-82
2023/01/15 13:26:00;;;;;;;4.63;1.93;;;;;;;;;;5075967;28;20205;-83
2023/01/15 13:28:30;;;;;;;3.97;1.50;;;;;;;;;;5073491;28;20168;-83
2023/01/15 13:31:05;;;;;;;10.07;4.07;;;;;;;;;;5068619;28;20204;-83
2023/01/15 13:33:40;;;;;;;2.33;1.83;;;;;;;;;;5067161;28;20261;-83
2023/01/15 13:36:10;;;;;;;3.33;2.10;;;;;;;;;;5066691;28;20211;-82
2023/01/15 13:38:40;;;;;;;5.33;3.50;;;;;;;;;;5076571;28;20181;-83
2023/01/15 13:41:06;;;;;;;3.77;2.10;;;;;;;;;;5068643;28;20212;-82
2023/01/15 13:43:41;;;;;;;5.53;1.47;;;;;;;;;;5073865;28;20173;-81
2023/01/15 13:46:08;;;;;;;1.80;1.53;;;;;;;;;;5058376;28;20197;-82
2023/01/15 13:48:35;;;;;;;2.20;1.30;;;;;;;;;;5068380;28;20166;-82
2023/01/15 13:51:01;;;;;;;2.00;1.00;;;;;;;;;;5073802;28;20225;-82
2023/01/15 13:53:44;;;;;;;1.67;1.00;;;;;;;;;;5071388;28;20188;-82
2023/01/15 13:56:13;;;;;;;3.80;1.67;;;;;;;;;;5069794;28;20250;-82
2023/01/15 13:58:50;;;;;;;3.40;2.13;;;;;;;;;;5068013;28;20181;-83
2023/01/15 14:01:19;;;;;;;1.77;1.50;;;;;;;;;;5066443;28;20186;-82
2023/01/15 14:04:00;;;;;;;4.17;1.90;;;;;;;;;;5065934;28;20212;-83
2023/01/15 14:06:37;;;;;;;2.30;1.10;;;;;;;;;;5069583;28;20197;-82
2023/01/15 14:09:04;;;;;;;6.13;1.83;;;;;;;;;;5067744;28;20200;-83
2023/01/15 14:11:48;;;;;;;3.53;2.23;;;;;;;;;;5076895;28;20236;-83
2023/01/15 14:14:28;;;;;;;4.17;2.03;;;;;;;;;;5057745;28;20175;-83
2023/01/15 14:16:53;;;;;;;2.00;1.40;;;;;;;;;;5067182;28;20173;-84
2023/01/15 14:19:19;;;;;;;4.57;2.67;;;;;;;;;;5061422;28;20188;-83
2023/01/15 14:22:02;;;;;;;6.17;3.83;;;;;;;;;;5065592;28;20174;-82
2023/01/15 14:24:36;;;;;;;4.73;1.50;;;;;;;;;;5071917;28;20203;-83
2023/01/15 14:27:04;;;;;;;6.23;4.43;;;;;;;;;;5064095;28;20174;-82
2023/01/15 14:29:49;;;;;;;12.87;5.90;;;;;;;;;;5069508;28;20182;-83
2023/01/15 14:32:27;;;;;;;4.80;2.93;;;;;;;;;;5063313;28;20178;-82
2023/01/15 14:34:54;;;;;;;3.53;2.27;;;;;;;;;;5069936;28;20181;-83
2023/01/15 14:37:25;;;;;;;3.57;3.00;;;;;;;;;;5066964;28;20229;-83
2023/01/15 14:39:59;;;;;;;2.40;1.97;;;;;;;;;;5064831;28;20174;-82
2023/01/15 14:45:11;;;;;;;2.03;1.57;;;;;;;;;;5069767;28;20200;-82
2023/01/15 14:47:46;;;;;;;3.10;1.90;;;;;;;;;;5066328;28;20185;-84
2023/01/15 14:50:21;;;;;;;3.73;3.40;;;;;;;;;;5060981;28;20185;-82
2023/01/15 14:52:48;;;;;;;2.87;2.13;;;;;;;;;;5062112;28;20383;-83
2023/01/15 14:55:14;;;;;;;4.03;2.43;;;;;;;;;;5065659;28;20190;-83
2023/01/15 14:57:41;;;;;;;3.70;2.33;;;;;;;;;;5069333;28;20315;-84
2023/01/15 15:00:11;;;;;;;4.43;3.00;;;;;;;;;;5059599;28;20540;-84
2023/01/15 15:02:38;;;;;;;2.93;2.33;;;;;;;;;;5062967;28;20381;-82
2023/01/15 15:05:07;;;;;;;2.10;1.73;;;;;;;;;;5079834;28;20201;-83
2023/01/15 15:07:38;;;;;;;3.40;2.00;;;;;;;;;;5065359;28;20170;-84
2023/01/15 15:10:09;;;;;;;6.07;2.80;;;;;;;;;;5074150;28;20178;-82
2023/01/15 15:12:44;;;;;;;3.63;2.37;;;;;;;;;;5081106;28;20180;-83
2023/01/15 15:15:15;;;;;;;2.50;1.90;;;;;;;;;;5060804;28;20185;-82
2023/01/15 15:17:57;;;;;;;3.77;1.80;;;;;;;;;;5066871;28;20230;-82
2023/01/15 15:20:41;;;;;;;5.60;3.27;;;;;;;;;;5076144;28;20178;-83
2023/01/15 15:23:27;;;;;;;2.00;1.80;;;;;;;;;;5064106;28;20189;-82
2023/01/15 15:26:00;;;;;;;2.27;0.90;;;;;;;;;;5062571;28;20221;-83
2023/01/15 15:28:25;;;;;;;3.80;1.43;;;;;;;;;;5076683;28;20173;-82
2023/01/15 15:30:51;;;;;;;3.80;1.37;;;;;;;;;;5059073;28;20379;-82
2023/01/15 15:33:26;;;;;;;2.27;1.80;;;;;;;;;;5064488;28;20174;-82
2023/01/15 15:35:53;;;;;;;1.67;1.50;;;;;;;;;;5063651;28;20207;-82
2023/01/15 15:38:19;;;;;;;1.53;1.10;;;;;;;;;;5081422;28;20261;-82
2023/01/15 15:40:47;;;;;;;3.90;2.73;;;;;;;;;;5074187;28;20217;-82
2023/01/15 15:49:06;;;;;;;6.17;3.93;;;;;;;;;;5066655;28;20192;-82
2023/01/15 15:51:31;;;;;;;7.30;3.47;;;;;;;;;;5071335;28;20253;-82